createdAt,value
2022-09-25T00:00:49.128Z,3.60
2022-09-25T00:03:17.206Z,3.53
2022-09-25T00:05:45.994Z,4.07
2022-09-25T00:08:14.144Z,3.50
2022-09-25T00:10:42.887Z,3.77
2022-09-25T00:13:10.734Z,3.70
2022-09-25T00:15:39.815Z,4.47
2022-09-25T00:18:07.471Z,4.03
2022-09-25T00:20:34.539Z,3.00
2022-09-25T00:23:02.237Z,4.27
2022-09-25T00:25:30.369Z,3.50
2022-09-25T00:27:58.044Z,3.50
2022-09-25T00:30:26.317Z,3.33
2022-09-25T00:32:55.701Z,3.63
2022-09-25T00:35:23.893Z,3.77
2022-09-25T00:37:51.720Z,3.33
2022-09-25T00:40:20.222Z,3.30
2022-09-25T00:42:48.088Z,3.33
2022-09-25T00:45:18.429Z,3.37
2022-09-25T00:47:49.428Z,2.77
2022-09-25T00:50:35.544Z,3.60
2022-09-25T00:53:06.124Z,4.13
2022-09-25T00:55:34.531Z,3.37
2022-09-25T00:58:02.381Z,3.90
2022-09-25T01:00:30.301Z,3.60
2022-09-25T01:02:58.748Z,3.77
2022-09-25T01:05:29.194Z,3.43
2022-09-25T01:07:59.019Z,3.57
2022-09-25T01:10:27.028Z,4.17
2022-09-25T01:12:54.969Z,4.60
2022-09-25T01:15:25.112Z,4.07
2022-09-25T01:17:59.148Z,4.30
2022-09-25T01:20:52.067Z,4.43
2022-09-25T01:23:31.206Z,3.87
2022-09-25T01:26:15.487Z,3.97
2022-09-25T01:28:52.219Z,3.97
2022-09-25T01:31:23.091Z,3.53
2022-09-25T01:33:53.877Z,4.23
2022-09-25T01:36:24.593Z,3.70
2022-09-25T01:38:53.185Z,4.30
2022-09-25T01:41:23.212Z,3.90
2022-09-25T01:43:53.929Z,3.50
2022-09-25T01:46:22.663Z,4.20
2022-09-25T01:48:52.422Z,3.60
2022-09-25T01:51:21.450Z,3.70
2022-09-25T01:53:51.969Z,4.30
2022-09-25T01:56:22.511Z,4.27
2022-09-25T01:58:53.498Z,4.53
2022-09-25T02:01:23.167Z,5.00
2022-09-25T02:03:52.513Z,4.50
2022-09-25T02:06:21.304Z,4.63
2022-09-25T02:08:50.304Z,5.07
2022-09-25T02:11:18.321Z,4.97
2022-09-25T02:13:49.153Z,4.33
2022-09-25T02:16:19.311Z,4.13
2022-09-25T02:19:04.944Z,4.63
2022-09-25T02:21:39.310Z,3.87
2022-09-25T02:24:10.978Z,4.30
2022-09-25T02:26:39.284Z,4.80
2022-09-25T02:29:08.663Z,4.10
2022-09-25T02:31:40.820Z,4.73
2022-09-25T02:34:14.450Z,4.80
2022-09-25T02:36:43.456Z,5.03
2022-09-25T02:39:11.291Z,4.53
2022-09-25T02:41:49.608Z,4.43
2022-09-25T02:44:19.417Z,5.40
2022-09-25T02:46:53.084Z,4.90
2022-09-25T02:49:24.614Z,4.63
2022-09-25T02:51:56.514Z,4.23
2022-09-25T02:54:25.794Z,4.67
2022-09-25T02:56:56.090Z,4.50
2022-09-25T02:59:29.303Z,5.50
2022-09-25T03:01:59.025Z,4.37
2022-09-25T03:04:27.032Z,4.83
2022-09-25T03:06:54.747Z,4.53
2022-09-25T03:09:22.239Z,5.00
2022-09-25T03:11:50.060Z,4.37
2022-09-25T03:14:17.806Z,4.40
2022-09-25T03:16:47.554Z,4.50
2022-09-25T03:19:18.619Z,5.10
2022-09-25T03:21:46.431Z,5.00
2022-09-25T03:24:14.615Z,5.00
2022-09-25T03:26:42.387Z,4.80
2022-09-25T03:29:10.126Z,4.70
2022-09-25T03:31:37.801Z,4.73
2022-09-25T03:34:05.767Z,4.93
2022-09-25T03:36:36.620Z,4.60
2022-09-25T03:39:04.456Z,4.60
2022-09-25T03:41:33.580Z,4.70
2022-09-25T03:44:01.352Z,4.53
2022-09-25T03:46:29.931Z,4.77
2022-09-25T03:48:57.860Z,4.40
2022-09-25T03:51:26.341Z,4.50
2022-09-25T03:53:55.406Z,4.50
2022-09-25T03:56:23.899Z,5.00
2022-09-25T03:58:52.191Z,4.80
2022-09-25T04:01:22.205Z,4.17
2022-09-25T04:03:50.521Z,4.20
2022-09-25T04:06:20.642Z,4.23
2022-09-25T04:08:48.752Z,4.30
2022-09-25T04:11:17.790Z,4.20
2022-09-25T04:13:45.494Z,4.17
2022-09-25T04:16:13.828Z,3.80
2022-09-25T04:18:42.670Z,4.83
2022-09-25T04:21:11.118Z,4.47
2022-09-25T04:23:38.966Z,4.30
2022-09-25T04:26:07.675Z,4.40
2022-09-25T04:28:36.732Z,4.43
2022-09-25T04:31:04.510Z,4.13
2022-09-25T04:33:47.776Z,3.87
2022-09-25T04:36:15.889Z,3.40
2022-09-25T04:38:44.119Z,4.43
2022-09-25T04:41:12.060Z,3.63
2022-09-25T04:43:41.412Z,3.87
2022-09-25T04:46:09.658Z,3.80
2022-09-25T04:48:38.012Z,4.03
2022-09-25T04:51:06.025Z,4.10
2022-09-25T04:53:35.327Z,4.30
2022-09-25T04:56:03.512Z,3.87
2022-09-25T04:58:31.639Z,3.80
2022-09-25T05:01:04.160Z,3.33
2022-09-25T05:03:32.340Z,4.13
2022-09-25T05:06:00.073Z,3.50
2022-09-25T05:08:28.348Z,3.90
2022-09-25T05:10:57.118Z,3.90
2022-09-25T05:13:24.850Z,3.33
2022-09-25T05:15:52.600Z,3.73
2022-09-25T05:18:22.600Z,3.47
2022-09-25T05:20:50.280Z,3.27
2022-09-25T05:23:18.260Z,3.20
2022-09-25T05:25:52.073Z,3.60
2022-09-25T05:28:19.742Z,3.70
2022-09-25T05:30:47.524Z,3.80
2022-09-25T05:33:15.216Z,3.40
2022-09-25T05:35:44.292Z,3.63
2022-09-25T05:38:12.392Z,3.53
2022-09-25T05:40:40.160Z,3.57
2022-09-25T05:43:07.907Z,3.50
2022-09-25T05:45:36.253Z,3.57
2022-09-25T05:48:04.735Z,3.23
2022-09-25T05:50:33.450Z,3.50
2022-09-25T05:53:03.402Z,3.30
2022-09-25T05:55:31.397Z,3.57
2022-09-25T05:58:03.048Z,3.40
2022-09-25T06:00:32.489Z,3.70
2022-09-25T06:03:00.731Z,3.00
2022-09-25T06:05:28.462Z,3.07
2022-09-25T06:07:56.267Z,3.10
2022-09-25T06:10:27.180Z,3.40
2022-09-25T06:12:59.102Z,3.10
2022-09-25T06:15:27.804Z,3.33
2022-09-25T06:17:56.274Z,3.37
2022-09-25T06:20:24.899Z,3.47
2022-09-25T06:22:54.797Z,3.70
2022-09-25T06:25:23.854Z,3.53
2022-09-25T06:27:55.397Z,2.80
2022-09-25T06:30:23.219Z,2.90
2022-09-25T06:32:51.086Z,3.00
2022-09-25T06:35:18.809Z,3.47
2022-09-25T06:37:46.488Z,2.90
2022-09-25T06:40:14.279Z,3.07
2022-09-25T06:42:42.399Z,3.40
2022-09-25T06:45:12.059Z,3.00
2022-09-25T06:47:39.741Z,3.03
2022-09-25T06:50:08.724Z,3.10
2022-09-25T06:52:43.185Z,3.10
2022-09-25T06:55:11.670Z,2.83
2022-09-25T06:57:39.358Z,3.07
2022-09-25T07:00:08.126Z,3.10
2022-09-25T07:02:54.860Z,2.47
2022-09-25T07:05:22.987Z,3.17
2022-09-25T07:07:50.701Z,2.70
2022-09-25T07:10:18.946Z,2.70
2022-09-25T07:12:47.909Z,2.60
2022-09-25T07:15:15.794Z,2.83
2022-09-25T07:17:45.255Z,2.80
2022-09-25T07:20:13.992Z,2.60
2022-09-25T07:22:41.727Z,3.13
2022-09-25T07:25:10.130Z,2.93
2022-09-25T07:27:37.831Z,3.27
2022-09-25T07:30:06.408Z,3.47
2022-09-25T07:32:34.964Z,3.30
2022-09-25T07:35:04.368Z,3.30
2022-09-25T07:37:32.323Z,3.70
2022-09-25T07:40:00.295Z,3.63
2022-09-25T07:42:28.174Z,3.93
2022-09-25T07:44:56.113Z,3.90
2022-09-25T07:47:24.359Z,4.47
2022-09-25T07:49:52.281Z,4.00
2022-09-25T07:52:21.891Z,4.40
2022-09-25T07:54:49.848Z,3.90
2022-09-25T07:57:20.881Z,3.83
2022-09-25T07:59:48.813Z,3.50
2022-09-25T08:02:16.794Z,4.20
2022-09-25T08:04:44.857Z,3.77
2022-09-25T08:07:12.721Z,3.90
2022-09-25T08:09:41.789Z,4.03
2022-09-25T08:12:12.982Z,3.93
2022-09-25T08:14:41.859Z,3.43
2022-09-25T08:17:09.722Z,3.30
2022-09-25T08:19:37.597Z,3.13
2022-09-25T08:22:05.498Z,3.47
2022-09-25T08:24:33.773Z,3.80
2022-09-25T08:27:03.184Z,3.33
2022-09-25T08:29:31.477Z,3.10
2022-09-25T08:31:59.326Z,3.30
2022-09-25T08:34:40.460Z,3.27
2022-09-25T08:37:09.819Z,3.30
2022-09-25T08:39:38.250Z,2.33
2022-09-25T08:42:07.590Z,3.20
2022-09-25T08:44:38.316Z,2.80
2022-09-25T08:47:25.439Z,3.20
2022-09-25T08:50:00.538Z,2.77
2022-09-25T08:52:28.209Z,2.87
2022-09-25T08:54:55.879Z,2.60
2022-09-25T08:57:30.762Z,2.83
2022-09-25T09:00:02.408Z,2.30
2022-09-25T09:02:39.368Z,2.60
2022-09-25T09:05:12.031Z,2.97
2022-09-25T09:07:41.748Z,2.37
2022-09-25T09:10:16.737Z,2.50
2022-09-25T09:12:47.123Z,2.20
2022-09-25T09:15:22.516Z,2.40
2022-09-25T09:17:50.831Z,2.40
2022-09-25T09:20:20.451Z,2.03
2022-09-25T09:22:50.809Z,2.47
2022-09-25T09:25:27.044Z,2.10
2022-09-25T09:28:06.076Z,2.23
2022-09-25T09:30:35.688Z,2.37
2022-09-25T09:33:15.148Z,2.50
2022-09-25T09:35:47.565Z,1.80
2022-09-25T09:38:21.867Z,1.90
2022-09-25T09:41:02.947Z,2.33
2022-09-25T09:43:40.078Z,2.10
2022-09-25T09:46:16.335Z,2.00
2022-09-25T09:48:47.212Z,1.70
2022-09-25T09:51:17.213Z,1.50
2022-09-25T09:53:48.159Z,1.40
2022-09-25T09:56:18.746Z,1.40
2022-09-25T09:58:50.731Z,1.10
2022-09-25T10:01:40.418Z,1.50
2022-09-25T10:04:10.106Z,1.27
2022-09-25T10:06:39.662Z,1.30
2022-09-25T10:09:08.920Z,1.70
2022-09-25T10:11:37.539Z,1.77
2022-09-25T10:14:07.350Z,1.30
2022-09-25T10:16:35.549Z,1.40
2022-09-25T10:19:06.840Z,1.67
2022-09-25T10:21:38.651Z,1.37
2022-09-25T10:24:07.601Z,1.73
2022-09-25T10:26:36.916Z,1.13
2022-09-25T10:29:24.207Z,1.30
2022-09-25T10:31:58.831Z,1.33
2022-09-25T10:34:29.169Z,1.30
2022-09-25T10:36:57.010Z,1.43
2022-09-25T10:39:44.298Z,1.33
2022-09-25T10:42:38.889Z,1.43
2022-09-25T10:45:31.951Z,1.37
2022-09-25T10:48:17.298Z,1.60
2022-09-25T10:50:45.711Z,1.30
2022-09-25T10:53:28.892Z,1.57
2022-09-25T10:56:02.264Z,1.30
2022-09-25T10:58:32.055Z,2.77
2022-09-25T11:01:02.545Z,4.63
2022-09-25T11:03:32.143Z,7.60
2022-09-25T11:06:02.305Z,8.83
2022-09-25T11:08:31.323Z,9.27
2022-09-25T11:11:00.538Z,12.10
2022-09-25T11:13:30.179Z,11.93
2022-09-25T11:15:59.654Z,13.47
2022-09-25T11:18:47.280Z,13.90
2022-09-25T11:21:23.294Z,11.87
2022-09-25T11:24:01.276Z,11.77
2022-09-25T11:26:32.197Z,13.03
2022-09-25T11:29:05.283Z,11.50
2022-09-25T11:31:37.687Z,8.53
2022-09-25T11:34:12.462Z,8.20
2022-09-25T11:36:42.700Z,8.40
2022-09-25T11:39:30.117Z,7.30
2022-09-25T11:42:00.599Z,7.67
2022-09-25T11:44:32.167Z,7.83
2022-09-25T11:47:02.907Z,5.90
2022-09-25T11:49:34.438Z,6.60
2022-09-25T11:52:23.092Z,5.60
2022-09-25T11:55:16.986Z,4.93
2022-09-25T11:57:50.521Z,4.47
2022-09-25T12:00:20.446Z,4.83
2022-09-25T12:03:01.329Z,4.60
2022-09-25T12:05:41.300Z,3.57
2022-09-25T12:08:19.412Z,4.90
2022-09-25T12:10:53.532Z,4.50
2022-09-25T12:13:26.774Z,4.70
2022-09-25T12:16:01.195Z,4.10
2022-09-25T12:18:40.654Z,2.67
2022-09-25T12:21:11.475Z,3.30
2022-09-25T12:23:44.077Z,4.77
2022-09-25T12:26:17.672Z,4.53
2022-09-25T12:28:59.499Z,2.67
2022-09-25T12:31:32.283Z,4.17
2022-09-25T12:34:06.237Z,1.93
2022-09-25T12:36:38.939Z,4.40
2022-09-25T12:39:18.312Z,7.23
2022-09-25T12:41:48.268Z,9.10
2022-09-25T12:44:22.372Z,15.40
2022-09-25T12:46:55.000Z,4.27
2022-09-25T12:49:28.765Z,6.20
2022-09-25T12:52:00.399Z,3.03
2022-09-25T12:54:32.627Z,1.83
2022-09-25T12:57:03.076Z,1.87
2022-09-25T12:59:33.828Z,1.70
2022-09-25T13:02:04.398Z,1.80
2022-09-25T13:04:53.678Z,1.90
2022-09-25T13:07:26.572Z,1.70
2022-09-25T13:09:54.266Z,1.53
2022-09-25T13:12:27.355Z,1.50
2022-09-25T13:14:57.153Z,1.30
2022-09-25T13:17:24.864Z,1.47
2022-09-25T13:19:52.624Z,1.27
2022-09-25T13:22:21.649Z,1.27
2022-09-25T13:24:53.376Z,1.30
2022-09-25T13:27:22.583Z,1.50
2022-09-25T13:29:56.828Z,1.40
2022-09-25T13:32:28.848Z,1.63
2022-09-25T13:34:59.074Z,1.67
2022-09-25T13:37:29.085Z,1.30
2022-09-25T13:40:15.724Z,1.90
2022-09-25T13:42:44.797Z,1.50
2022-09-25T13:45:29.223Z,1.70
2022-09-25T13:48:10.901Z,1.60
2022-09-25T13:50:40.444Z,1.57
2022-09-25T13:53:27.456Z,1.23
2022-09-25T13:56:36.449Z,1.80
2022-09-25T13:59:38.674Z,1.30
2022-09-25T14:02:37.825Z,1.53
2022-09-25T14:05:06.584Z,1.50
2022-09-25T14:07:34.846Z,1.37
2022-09-25T14:10:02.638Z,2.10
2022-09-25T14:12:42.233Z,1.60
2022-09-25T14:15:15.618Z,1.47
2022-09-25T14:17:44.338Z,1.57
2022-09-25T14:20:35.093Z,1.50
2022-09-25T14:23:06.132Z,1.80
2022-09-25T14:25:36.175Z,1.70
2022-09-25T14:28:14.772Z,2.00
2022-09-25T14:30:42.710Z,2.10
2022-09-25T14:33:37.272Z,2.23
2022-09-25T14:36:08.706Z,2.53
2022-09-25T14:38:59.639Z,2.37
2022-09-25T14:42:01.848Z,2.53
2022-09-25T14:44:41.533Z,2.70
2022-09-25T14:47:09.608Z,2.57
2022-09-25T14:49:39.372Z,3.20
2022-09-25T14:52:09.244Z,2.90
2022-09-25T14:54:39.719Z,2.77
2022-09-25T14:57:07.591Z,2.60
2022-09-25T14:59:40.455Z,2.50
2022-09-25T15:02:13.208Z,2.33
2022-09-25T15:04:41.636Z,2.47
2022-09-25T15:07:24.352Z,2.77
2022-09-25T15:09:55.924Z,2.60
2022-09-25T15:12:26.727Z,2.97
2022-09-25T15:15:03.643Z,2.73
2022-09-25T15:17:31.206Z,3.03
2022-09-25T15:20:02.617Z,2.60
2022-09-25T15:22:32.688Z,3.20
2022-09-25T15:25:01.741Z,2.73
2022-09-25T15:27:30.163Z,3.00
2022-09-25T15:30:00.149Z,3.30
2022-09-25T15:32:33.384Z,3.27
2022-09-25T15:35:09.581Z,3.63
2022-09-25T15:37:38.676Z,3.03
2022-09-25T15:40:18.474Z,3.30
2022-09-25T15:42:47.570Z,3.13
2022-09-25T15:45:35.569Z,3.13
2022-09-25T15:48:10.391Z,3.57
2022-09-25T15:50:38.389Z,3.20
2022-09-25T15:53:06.343Z,3.90
2022-09-25T15:55:34.298Z,4.03
2022-09-25T15:58:07.428Z,3.40
2022-09-25T16:00:52.701Z,3.83
2022-09-25T16:03:40.789Z,3.10
2022-09-25T16:06:13.193Z,3.43
2022-09-25T16:08:41.110Z,3.20
2022-09-25T16:11:20.890Z,3.40
2022-09-25T16:13:51.937Z,3.00
2022-09-25T16:16:24.865Z,3.37
2022-09-25T16:18:56.276Z,3.97
2022-09-25T16:21:26.850Z,3.67
2022-09-25T16:23:56.779Z,3.33
2022-09-25T16:26:26.014Z,3.40
2022-09-25T16:29:01.727Z,3.90
2022-09-25T16:31:29.527Z,3.67
2022-09-25T16:34:00.432Z,3.60
2022-09-25T16:36:28.930Z,3.37
2022-09-25T16:39:31.581Z,3.80
2022-09-25T16:42:00.277Z,3.60
2022-09-25T16:44:46.836Z,3.80
2022-09-25T16:47:17.769Z,3.63
2022-09-25T16:49:47.198Z,3.23
2022-09-25T16:52:20.239Z,3.33
2022-09-25T16:54:53.759Z,3.90
2022-09-25T16:57:22.589Z,3.53
2022-09-25T16:59:50.603Z,3.70
2022-09-25T17:02:32.770Z,3.63
2022-09-25T17:05:03.447Z,3.30
2022-09-25T17:07:31.308Z,3.87
2022-09-25T17:10:01.518Z,3.40
2022-09-25T17:12:30.154Z,3.80
2022-09-25T17:14:58.071Z,3.50
2022-09-25T17:17:26.052Z,3.30
2022-09-25T17:19:54.022Z,3.47
2022-09-25T17:22:29.358Z,3.63
2022-09-25T17:24:58.310Z,3.93
2022-09-25T17:27:26.178Z,2.90
2022-09-25T17:29:53.850Z,3.43
2022-09-25T17:32:21.541Z,3.47
2022-09-25T17:34:50.181Z,3.20
2022-09-25T17:37:17.957Z,3.33
2022-09-25T17:39:47.448Z,2.90
2022-09-25T17:42:15.678Z,3.50
2022-09-25T17:44:43.771Z,3.93
2022-09-25T17:47:12.893Z,3.40
2022-09-25T17:49:41.019Z,3.40
2022-09-25T17:52:09.896Z,3.53
2022-09-25T17:54:37.672Z,4.30
2022-09-25T17:57:07.029Z,4.40
2022-09-25T17:59:34.794Z,3.70
2022-09-25T18:02:02.679Z,4.27
2022-09-25T18:04:30.616Z,3.90
2022-09-25T18:06:59.813Z,4.10
2022-09-25T18:09:27.856Z,4.37
2022-09-25T18:11:55.819Z,4.30
2022-09-25T18:14:26.310Z,4.97
2022-09-25T18:16:54.170Z,4.50
2022-09-25T18:19:39.432Z,4.40
2022-09-25T18:22:21.370Z,4.90
2022-09-25T18:24:52.605Z,4.70
2022-09-25T18:27:20.329Z,4.77
2022-09-25T18:29:49.440Z,5.20
2022-09-25T18:32:17.336Z,5.23
2022-09-25T18:34:45.814Z,4.93
2022-09-25T18:37:13.762Z,5.33
2022-09-25T18:39:41.626Z,5.53
2022-09-25T18:42:09.571Z,5.33
2022-09-25T18:44:42.612Z,5.53
2022-09-25T18:47:12.449Z,6.07
2022-09-25T18:49:40.261Z,5.87
2022-09-25T18:52:08.288Z,5.80
2022-09-25T18:54:35.970Z,5.97
2022-09-25T18:57:03.716Z,6.00
2022-09-25T18:59:31.456Z,6.77
2022-09-25T19:02:00.039Z,6.10
2022-09-25T19:04:29.571Z,6.83
2022-09-25T19:06:57.359Z,6.50
2022-09-25T19:09:27.308Z,6.07
2022-09-25T19:11:55.125Z,6.70
2022-09-25T19:14:23.988Z,6.93
2022-09-25T19:16:53.368Z,7.20
2022-09-25T19:19:21.224Z,7.20
2022-09-25T19:21:50.401Z,7.43
2022-09-25T19:24:18.687Z,7.70
2022-09-25T19:26:48.004Z,8.00
2022-09-25T19:29:15.914Z,7.20
2022-09-25T19:31:44.277Z,7.67
2022-09-25T19:34:12.612Z,8.20
2022-09-25T19:36:40.395Z,7.30
2022-09-25T19:39:09.495Z,7.93
2022-09-25T19:41:39.115Z,7.77
2022-09-25T19:44:13.244Z,8.23
2022-09-25T19:46:42.297Z,8.07
2022-09-25T19:49:10.269Z,8.33
2022-09-25T19:51:38.615Z,8.10
2022-09-25T19:54:07.839Z,7.67
2022-09-25T19:56:40.591Z,8.20
2022-09-25T19:59:09.021Z,7.83
2022-09-25T20:01:38.302Z,8.30
2022-09-25T20:04:08.546Z,7.93
2022-09-25T20:06:37.733Z,8.33
2022-09-25T20:09:06.025Z,8.67
2022-09-25T20:11:34.610Z,8.80
2022-09-25T20:14:04.644Z,8.80
2022-09-25T20:16:32.739Z,9.20
2022-09-25T20:19:02.770Z,8.97
2022-09-25T20:21:32.656Z,9.13
2022-09-25T20:24:02.093Z,7.83
2022-09-25T20:26:30.146Z,9.20
2022-09-25T20:28:58.925Z,9.53
2022-09-25T20:31:29.728Z,10.50
2022-09-25T20:33:57.752Z,10.40
2022-09-25T20:36:25.710Z,10.10
2022-09-25T20:38:54.029Z,10.90
2022-09-25T20:41:22.309Z,11.13
2022-09-25T20:43:50.299Z,12.83
2022-09-25T20:46:20.693Z,13.03
2022-09-25T20:48:50.984Z,13.10
2022-09-25T20:51:19.756Z,13.40
2022-09-25T20:53:50.861Z,13.23
2022-09-25T20:56:18.598Z,13.80
2022-09-25T20:58:52.143Z,14.40
2022-09-25T21:01:22.751Z,16.30
2022-09-25T21:03:52.346Z,17.00
2022-09-25T21:06:21.116Z,17.03
2022-09-25T21:08:52.448Z,16.87
2022-09-25T21:11:20.395Z,19.17
2022-09-25T21:13:50.487Z,19.27
2022-09-25T21:16:18.663Z,20.70
2022-09-25T21:18:46.692Z,20.37
2022-09-25T21:21:16.080Z,21.40
2022-09-25T21:23:44.100Z,21.90
2022-09-25T21:26:13.663Z,23.30
2022-09-25T21:28:42.679Z,22.33
2022-09-25T21:31:11.840Z,24.03
2022-09-25T21:33:40.068Z,23.67
2022-09-25T21:36:10.214Z,25.07
2022-09-25T21:38:39.750Z,26.20
2022-09-25T21:41:08.312Z,27.57
2022-09-25T21:43:36.749Z,24.87
2022-09-25T21:46:06.036Z,24.50
2022-09-25T21:48:34.848Z,22.80
2022-09-25T21:51:02.935Z,23.47
2022-09-25T21:53:30.704Z,21.60
2022-09-25T21:56:03.921Z,22.27
2022-09-25T21:58:31.829Z,22.80
2022-09-25T22:01:04.370Z,20.90
2022-09-25T22:03:33.441Z,20.33
2022-09-25T22:06:01.240Z,21.73
2022-09-25T22:08:28.964Z,19.73
2022-09-25T22:10:57.151Z,20.50
2022-09-25T22:13:26.623Z,20.03
2022-09-25T22:16:01.264Z,19.20
2022-09-25T22:18:29.140Z,19.80
2022-09-25T22:20:56.939Z,19.37
2022-09-25T22:23:24.891Z,18.90
2022-09-25T22:25:53.169Z,19.03
2022-09-25T22:28:21.099Z,20.60
2022-09-25T22:30:50.329Z,18.53
2022-09-25T22:33:18.148Z,19.00
2022-09-25T22:35:46.423Z,19.40
2022-09-25T22:38:14.186Z,18.73
2022-09-25T22:40:42.797Z,17.90
2022-09-25T22:43:10.903Z,18.90
2022-09-25T22:45:38.884Z,18.40
2022-09-25T22:48:08.695Z,17.63
2022-09-25T22:50:36.756Z,16.80
2022-09-25T22:53:05.006Z,17.00
2022-09-25T22:55:33.824Z,17.53
2022-09-25T22:58:01.696Z,18.20
2022-09-25T23:00:29.545Z,17.03
2022-09-25T23:02:57.502Z,18.03
2022-09-25T23:05:27.254Z,17.60
2022-09-25T23:07:55.418Z,17.03
2022-09-25T23:10:23.280Z,18.03
2022-09-25T23:12:51.047Z,17.90
2022-09-25T23:15:18.899Z,16.83
2022-09-25T23:17:46.758Z,17.53
2022-09-25T23:20:14.498Z,16.37
2022-09-25T23:22:43.984Z,17.37
2022-09-25T23:25:11.774Z,15.30
2022-09-25T23:27:39.537Z,14.17
2022-09-25T23:30:08.288Z,15.50
2022-09-25T23:32:36.732Z,14.73
2022-09-25T23:35:04.494Z,13.67
2022-09-25T23:37:32.359Z,13.97
2022-09-25T23:40:01.992Z,13.53
2022-09-25T23:42:30.149Z,13.00
2022-09-25T23:44:58.563Z,13.93
2022-09-25T23:47:26.693Z,13.10
2022-09-25T23:49:54.478Z,12.10
2022-09-25T23:52:22.388Z,11.93
2022-09-25T23:54:50.208Z,12.07
2022-09-25T23:57:19.498Z,11.47
2022-09-25T23:59:47.325Z,11.57
